Time;durP1;ratioP1;P1;durP2;ratioP2;P2;SDS_P1;SDS_P2;PMS_P1;PMS_P2;Temp;Humidity;BMP_temperature;BMP_pressure;BME280_temperature;BME280_humidity;BME280_pressure;Samples;Min_cycle;Max_cycle;Signal;HPM_P1;HPM_P2
2021/08/16 00:01:53;;;;;;;31.05;20.98;;;19.30;99.90;;;;;;6258199;22;20028;-95
2021/08/16 00:04:43;;;;;;;24.70;19.52;;;19.40;99.90;;;;;;6264622;22;20020;-94
2021/08/16 00:07:31;;;;;;;25.20;19.35;;;19.40;99.90;;;;;;6244169;23;20035;-93
2021/08/16 00:10:23;;;;;;;29.02;20.27;;;19.40;99.90;;;;;;6247281;23;20020;-91
2021/08/16 00:13:16;;;;;;;29.60;19.33;;;19.40;99.90;;;;;;6226229;23;20059;-93
2021/08/16 00:16:04;;;;;;;29.70;20.77;;;19.40;99.90;;;;;;6226906;23;20034;-94
2021/08/16 00:19:10;;;;;;;23.73;19.98;;;19.40;99.90;;;;;;6227506;23;20059;-95
2021/08/16 00:22:11;;;;;;;25.90;19.80;;;19.40;99.90;;;;;;6249489;23;20103;-95
2021/08/16 00:25:10;;;;;;;26.10;18.50;;;19.40;99.90;;;;;;6231924;23;20462;-93
2021/08/16 00:28:21;;;;;;;30.35;20.08;;;19.40;99.90;;;;;;6231040;23;20107;-96
2021/08/16 00:31:10;;;;;;;29.10;20.38;;;19.40;99.90;;;;;;6235823;23;20430;-93
2021/08/16 00:34:19;;;;;;;25.83;19.77;;;19.40;99.90;;;;;;6229630;23;20028;-93
2021/08/16 00:40:24;;;;;;;28.45;20.05;;;19.30;99.90;;;;;;6270348;22;20044;-95
2021/08/16 00:43:14;;;;;;;33.42;20.90;;;19.30;99.90;;;;;;6247899;22;20022;-95
2021/08/16 00:46:04;;;;;;;33.58;21.45;;;19.30;99.90;;;;;;6270201;22;20020;-91
2021/08/16 00:48:54;;;;;;;25.08;20.30;;;19.30;99.90;;;;;;6234591;23;20024;-91
2021/08/16 00:51:43;;;;;;;29.52;21.63;;;19.30;99.90;;;;;;6237380;23;20028;-91
2021/08/16 00:54:39;;;;;;;34.60;21.70;;;19.40;99.90;;;;;;6229782;23;20327;-94
2021/08/16 00:57:42;;;;;;;;;;;;;;;;;;;;;
2021/08/16 01:00:57;;;;;;;39.03;22.67;;;19.20;99.90;;;;;;6235206;23;20024;-93
2021/08/16 01:04:16;;;;;;;34.38;22.25;;;19.30;99.90;;;;;;6249835;23;20280;-92
2021/08/16 01:07:30;;;;;;;31.77;21.88;;;19.20;99.90;;;;;;6230495;23;20129;-93
2021/08/16 01:10:30;;;;;;;26.10;20.52;;;19.20;99.90;;;;;;6227291;23;20099;-92
2021/08/16 01:13:23;;;;;;;32.55;19.95;;;19.20;99.90;;;;;;6252795;23;20090;-91
2021/08/16 01:16:24;;;;;;;27.38;18.92;;;19.20;99.90;;;;;;6251972;23;20372;-92
2021/08/16 01:19:26;;;;;;;30.67;20.38;;;19.20;99.90;;;;;;6216216;23;20024;-93
2021/08/16 01:22:53;;;;;;;29.08;19.20;;;19.20;99.90;;;;;;6251797;22;20024;-92
2021/08/16 01:26:22;;;;;;;31.67;19.77;;;19.20;99.90;;;;;;6236106;23;20074;-93
2021/08/16 01:29:28;;;;;;;28.35;18.48;;;19.20;99.90;;;;;;6272917;22;20024;-92
2021/08/16 01:32:44;;;;;;;32.03;20.40;;;19.20;99.90;;;;;;6250547;22;20008;-93
2021/08/16 01:35:33;;;;;;;30.60;19.75;;;19.10;99.90;;;;;;6250389;23;20035;-89
2021/08/16 01:38:45;;;;;;;22.77;17.02;;;19.10;99.90;;;;;;6252927;22;20060;-94
2021/08/16 01:41:42;;;;;;;25.13;15.30;;;19.10;99.90;;;;;;6272083;22;20020;-90
2021/08/16 01:44:29;;;;;;;19.75;13.15;;;19.10;99.90;;;;;;6248339;23;20055;-91
2021/08/16 01:47:17;;;;;;;18.17;12.52;;;19.20;99.90;;;;;;6257287;23;20099;-90
2021/08/16 01:50:05;;;;;;;18.73;12.55;;;19.20;99.90;;;;;;6260370;22;20031;-92
2021/08/16 01:52:52;;;;;;;17.80;12.15;;;19.20;99.90;;;;;;6232112;23;20058;-91
2021/08/16 01:55:41;;;;;;;15.93;11.30;;;19.20;99.90;;;;;;6251053;23;20039;-91
2021/08/16 01:58:32;;;;;;;18.67;11.50;;;19.10;99.90;;;;;;6251509;23;20103;-92
2021/08/16 02:01:59;;;;;;;19.77;12.32;;;19.10;99.90;;;;;;6231794;23;20020;-92
2021/08/16 02:04:48;;;;;;;20.35;11.95;;;19.00;99.90;;;;;;6251457;22;20082;-92
2021/08/16 02:11:30;;;;;;;15.40;10.18;;;18.90;99.90;;;;;;6163016;23;20026;-92
2021/08/16 02:14:49;;;;;;;18.52;11.23;;;18.90;99.90;;;;;;6254240;23;20016;-95
2021/08/16 02:18:10;;;;;;;19.40;11.45;;;18.90;99.90;;;;;;6165843;23;20025;-95
2021/08/16 02:21:08;;;;;;;16.83;11.82;;;18.80;99.90;;;;;;6229326;23;20044;-92
2021/08/16 02:23:56;;;;;;;20.50;13.05;;;18.80;99.90;;;;;;6262274;22;20023;-90
2021/08/16 02:30:30;;;;;;;25.30;13.93;;;18.80;99.90;;;;;;6247142;23;20027;-90
2021/08/16 02:33:20;;;;;;;23.10;15.02;;;18.80;99.90;;;;;;6247412;23;20042;-94
2021/08/16 02:36:42;;;;;;;24.65;14.70;;;18.70;99.90;;;;;;6195150;23;20021;-93
2021/08/16 02:39:32;;;;;;;25.80;15.18;;;18.60;99.90;;;;;;6188131;23;20056;-94
2021/08/16 02:42:34;;;;;;;22.45;15.13;;;18.60;99.90;;;;;;6204238;23;20029;-95
2021/08/16 02:45:30;;;;;;;28.33;17.17;;;18.50;99.90;;;;;;6201070;23;20056;-95
2021/08/16 02:49:18;;;;;;;30.83;17.90;;;18.50;99.90;;;;;;6193048;23;20025;-93
2021/08/16 02:52:25;;;;;;;25.63;17.75;;;18.50;99.90;;;;;;6078764;23;20113;-94
2021/08/16 02:55:38;;;;;;;27.13;19.13;;;18.50;99.90;;;;;;6101085;23;20177;-91
2021/08/16 02:58:45;;;;;;;27.92;18.70;;;18.40;99.90;;;;;;6104118;23;20037;-93
2021/08/16 03:01:33;;;;;;;31.30;19.90;;;18.40;99.90;;;;;;6099005;23;20022;-93
2021/08/16 03:04:36;;;;;;;29.73;19.98;;;18.40;99.90;;;;;;6099934;23;20118;-91
2021/08/16 03:07:46;;;;;;;24.73;19.70;;;18.40;99.90;;;;;;6064275;23;20050;-93
2021/08/16 03:10:52;;;;;;;33.33;19.95;;;18.40;99.90;;;;;;6071804;23;20027;-92
2021/08/16 03:18:09;;;;;;;33.85;19.58;;;18.30;99.90;;;;;;6018575;23;20126;-91
2021/08/16 03:21:55;;;;;;;29.30;19.45;;;18.20;99.90;;;;;;6034701;23;20442;-93
2021/08/16 03:24:38;;;;;;;31.92;20.30;;;18.20;99.90;;;;;;6183891;23;20024;-92
2021/08/16 03:27:29;;;;;;;31.77;21.30;;;18.20;99.90;;;;;;6250491;23;20031;-92
2021/08/16 03:30:51;;;;;;;33.03;20.58;;;18.30;99.90;;;;;;6182997;23;20148;-93
2021/08/16 03:33:50;;;;;;;27.35;20.30;;;18.20;99.90;;;;;;6189963;23;20088;-91
2021/08/16 03:36:55;;;;;;;33.30;23.00;;;18.20;99.90;;;;;;6176250;23;20361;-94
2021/08/16 03:39:43;;;;;;;35.50;23.95;;;18.20;99.90;;;;;;6157719;23;20029;-91
2021/08/16 03:47:06;;;;;;;;;;;;;;;;;;;;;
2021/08/16 03:50:11;;;;;;;31.80;22.70;;;18.20;99.90;;;;;;5950318;24;20031;-93
2021/08/16 03:53:06;;;;;;;32.60;21.65;;;18.20;99.90;;;;;;5965250;24;20072;-91
2021/08/16 03:56:20;;;;;;;31.65;21.40;;;18.20;99.90;;;;;;5958215;24;20031;-91
2021/08/16 03:59:39;;;;;;;34.25;22.17;;;18.40;99.90;;;;;;5940358;24;20020;-93
2021/08/16 04:06:39;;;;;;;;;;;;;;;;;;;;;
2021/08/16 04:09:44;;;;;;;38.65;24.33;;;18.20;99.90;;;;;;5970701;23;20023;-93
2021/08/16 04:12:34;;;;;;;39.95;27.17;;;18.10;99.90;;;;;;6016323;23;20304;-91
2021/08/16 04:15:35;;;;;;;37.25;25.80;;;18.00;99.90;;;;;;6017939;23;20400;-93
2021/08/16 04:18:49;;;;;;;35.22;26.33;;;18.00;99.90;;;;;;5996420;23;20510;-93
2021/08/16 04:21:49;;;;;;;33.70;25.75;;;18.00;99.90;;;;;;6020668;23;20039;-90
2021/08/16 04:24:47;;;;;;;39.13;27.50;;;17.90;99.90;;;;;;6171243;23;20096;-92
2021/08/16 04:27:49;;;;;;;43.50;28.70;;;17.90;99.90;;;;;;6199285;23;20021;-91
2021/08/16 04:51:20;;;;;;;38.03;24.38;;;17.80;99.90;;;;;;6180753;23;20012;-88
2021/08/16 04:54:07;;;;;;;43.33;24.80;;;18.00;99.90;;;;;;6161508;23;20021;-86
2021/08/16 04:56:57;;;;;;;28.10;18.45;;;18.00;99.90;;;;;;6160563;23;20107;-86
2021/08/16 04:59:45;;;;;;;23.55;15.10;;;18.10;99.90;;;;;;6185917;23;20025;-87
2021/08/16 05:02:32;;;;;;;20.92;13.38;;;18.10;99.90;;;;;;6184275;23;20025;-85
2021/08/16 05:05:26;;;;;;;23.50;11.98;;;18.10;99.90;;;;;;6185480;23;20021;-91
2021/08/16 05:08:14;;;;;;;18.38;11.10;;;18.20;99.90;;;;;;6184993;23;20466;-89
2021/08/16 05:11:02;;;;;;;18.70;12.23;;;18.20;99.90;;;;;;6205973;22;20051;-89
2021/08/16 05:13:50;;;;;;;19.10;12.40;;;18.20;99.90;;;;;;6184005;23;20150;-87
2021/08/16 05:16:41;;;;;;;22.15;11.68;;;18.30;99.90;;;;;;6184719;23;20021;-88
2021/08/16 05:19:29;;;;;;;23.20;12.07;;;18.30;99.90;;;;;;6184123;23;20529;-89
2021/08/16 05:22:16;;;;;;;17.77;11.18;;;18.40;99.90;;;;;;6204918;23;20029;-90
2021/08/16 05:25:05;;;;;;;17.65;10.70;;;18.40;99.90;;;;;;6203474;23;20036;-90
2021/08/16 05:27:53;;;;;;;15.80;10.77;;;18.50;99.90;;;;;;6205250;23;20028;-90
2021/08/16 05:30:43;;;;;;;22.52;9.70;;;18.60;99.90;;;;;;6184872;23;20025;-89
2021/08/16 05:33:31;;;;;;;23.40;10.77;;;18.60;99.90;;;;;;6183555;23;20455;-89
2021/08/16 05:36:18;;;;;;;15.65;9.27;;;18.60;99.90;;;;;;6209931;23;20130;-92
2021/08/16 05:39:06;;;;;;;13.43;8.50;;;18.70;99.90;;;;;;6223050;23;20020;-89
2021/08/16 05:41:53;;;;;;;13.40;8.55;;;18.70;99.90;;;;;;6246457;22;20024;-90
2021/08/16 05:44:40;;;;;;;13.73;8.55;;;18.70;99.90;;;;;;6223192;23;20094;-90
2021/08/16 05:47:32;;;;;;;21.50;9.43;;;18.70;99.90;;;;;;6245587;23;20028;-90
2021/08/16 05:50:22;;;;;;;20.75;9.13;;;18.80;99.90;;;;;;6200367;23;20111;-89
2021/08/16 05:53:11;;;;;;;16.60;8.65;;;18.80;99.90;;;;;;6204241;23;20028;-90
2021/08/16 05:55:58;;;;;;;15.90;8.90;;;18.70;99.90;;;;;;6222912;23;20028;-89
2021/08/16 05:58:46;;;;;;;14.95;9.80;;;18.60;99.90;;;;;;6223022;23;20027;-89
2021/08/16 06:01:39;;;;;;;18.13;8.50;;;18.60;99.90;;;;;;6225610;22;20031;-83
2021/08/16 06:04:27;;;;;;;12.63;8.10;;;18.50;99.90;;;;;;6203633;23;20016;-87
2021/08/16 06:07:16;;;;;;;16.55;8.75;;;18.50;99.90;;;;;;6224236;23;20035;-85
2021/08/16 06:10:07;;;;;;;17.50;8.25;;;18.50;99.90;;;;;;6245504;22;20024;-88
2021/08/16 06:12:55;;;;;;;17.50;8.35;;;18.60;99.90;;;;;;6241879;23;20028;-86
2021/08/16 06:15:42;;;;;;;13.85;8.00;;;18.60;99.90;;;;;;6223423;23;20443;-87
2021/08/16 06:18:30;;;;;;;11.82;7.97;;;18.60;99.90;;;;;;6245181;22;20024;-85
2021/08/16 06:21:18;;;;;;;10.55;7.65;;;18.60;99.90;;;;;;6258044;22;20020;-87
2021/08/16 06:24:06;;;;;;;17.25;7.72;;;18.70;99.90;;;;;;6252934;23;20021;-86
2021/08/16 06:26:53;;;;;;;11.52;7.25;;;18.80;99.90;;;;;;6257988;23;20024;-86
2021/08/16 06:29:40;;;;;;;10.90;6.93;;;18.90;99.90;;;;;;6251623;23;20047;-86
2021/08/16 06:32:29;;;;;;;9.93;5.95;;;19.10;99.90;;;;;;6237929;22;20024;-85
2021/08/16 06:35:19;;;;;;;15.98;5.95;;;19.40;99.90;;;;;;6254711;23;20058;-86
2021/08/16 06:38:19;;;;;;;10.70;5.00;;;19.70;99.90;;;;;;6218514;23;20038;-86
2021/08/16 06:41:06;;;;;;;10.32;5.18;;;19.70;99.90;;;;;;6256500;23;20024;-86
2021/08/16 06:43:54;;;;;;;13.45;5.93;;;19.40;99.90;;;;;;6228444;23;20467;-86
2021/08/16 06:46:42;;;;;;;15.05;5.10;;;19.50;99.90;;;;;;6223376;23;20046;-85
2021/08/16 06:49:29;;;;;;;9.80;4.63;;;20.00;99.90;;;;;;6244077;23;20366;-86
2021/08/16 06:52:16;;;;;;;8.00;4.15;;;20.70;99.90;;;;;;6240961;23;20024;-87
2021/08/16 06:55:04;;;;;;;9.55;4.50;;;21.10;99.90;;;;;;6241626;23;20086;-86
2021/08/16 06:57:53;;;;;;;7.50;4.63;;;21.30;99.90;;;;;;6218408;23;20296;-88
2021/08/16 07:00:43;;;;;;;12.57;4.53;;;21.20;99.90;;;;;;6199132;23;20038;-86
2021/08/16 07:03:30;;;;;;;12.82;4.70;;;21.10;99.90;;;;;;6221475;23;20103;-86
2021/08/16 07:06:18;;;;;;;9.45;4.32;;;21.00;99.90;;;;;;6221785;23;20036;-87
2021/08/16 07:09:06;;;;;;;13.00;4.20;;;21.00;99.90;;;;;;6242166;23;20024;-87
2021/08/16 07:11:55;;;;;;;9.38;4.55;;;20.90;99.90;;;;;;6243948;23;20093;-90
2021/08/16 07:14:43;;;;;;;11.30;4.43;;;20.50;99.90;;;;;;6220331;23;20031;-87
2021/08/16 07:17:32;;;;;;;8.73;4.30;;;20.20;99.90;;;;;;6242840;23;20106;-88
2021/08/16 07:20:20;;;;;;;7.38;3.90;;;20.40;99.90;;;;;;6201080;23;20110;-88
2021/08/16 07:23:07;;;;;;;5.05;3.65;;;20.80;99.90;;;;;;6223568;22;20024;-91
2021/08/16 07:25:58;;;;;;;9.43;4.20;;;21.00;99.90;;;;;;6220616;23;20035;-90
2021/08/16 07:28:48;;;;;;;5.68;3.88;;;21.20;99.90;;;;;;6223133;23;20020;-93
2021/08/16 07:31:35;;;;;;;13.73;4.20;;;21.40;99.90;;;;;;6221757;23;20518;-89
2021/08/16 07:34:25;;;;;;;10.55;3.88;;;21.20;99.90;;;;;;6223704;22;20024;-89
2021/08/16 07:37:14;;;;;;;8.40;4.60;;;21.00;99.90;;;;;;6220101;23;20051;-88
2021/08/16 07:40:01;;;;;;;8.68;4.07;;;20.80;99.90;;;;;;6201053;23;20024;-89
2021/08/16 07:42:49;;;;;;;10.45;4.30;;;20.80;99.90;;;;;;6203123;22;20020;-89
2021/08/16 07:45:36;;;;;;;8.32;3.65;;;21.00;99.90;;;;;;6200240;23;20418;-88
2021/08/16 07:48:27;;;;;;;7.88;3.60;;;21.10;99.90;;;;;;6223223;23;20032;-89
2021/08/16 07:51:19;;;;;;;7.72;3.72;;;21.10;99.90;;;;;;6247774;23;20032;-90
2021/08/16 07:54:27;;;;;;;9.05;4.07;;;21.20;99.90;;;;;;6232952;23;20024;-89
2021/08/16 07:57:14;;;;;;;5.55;3.88;;;21.30;99.90;;;;;;6233728;23;20031;-92
2021/08/16 08:00:06;;;;;;;6.70;3.90;;;21.40;99.90;;;;;;6226755;23;20027;-90
2021/08/16 08:02:56;;;;;;;7.28;3.75;;;21.50;99.90;;;;;;6244708;23;20030;-93
2021/08/16 08:05:49;;;;;;;10.82;4.10;;;21.50;99.90;;;;;;6225906;23;20043;-94
2021/08/16 08:08:38;;;;;;;6.00;4.07;;;21.50;99.90;;;;;;6224540;23;20039;-90
2021/08/16 08:11:29;;;;;;;10.02;3.90;;;21.60;99.90;;;;;;6242716;23;20127;-92
2021/08/16 08:14:31;;;;;;;10.37;4.10;;;21.80;99.90;;;;;;6246375;22;20039;-91
2021/08/16 08:17:46;;;;;;;7.70;3.50;;;22.00;99.90;;;;;;6246715;22;20031;-91
2021/08/16 08:20:49;;;;;;;9.00;3.75;;;22.50;99.90;;;;;;6226141;22;20020;-90
2021/08/16 08:23:39;;;;;;;8.63;3.63;;;23.20;99.90;;;;;;6226935;22;20020;-90
2021/08/16 08:26:26;;;;;;;10.48;3.80;;;23.90;99.90;;;;;;6221183;23;20020;-90
2021/08/16 08:29:14;;;;;;;13.68;4.10;;;24.10;99.90;;;;;;6246508;22;20127;-91
2021/08/16 08:32:01;;;;;;;7.72;3.65;;;24.80;99.90;;;;;;6224330;22;20028;-88
2021/08/16 08:34:50;;;;;;;5.47;3.40;;;25.00;96.80;;;;;;6246387;23;20020;-89
2021/08/16 08:37:40;;;;;;;6.13;3.33;;;25.40;97.50;;;;;;6246429;22;20016;-90
2021/08/16 08:40:28;;;;;;;8.02;3.92;;;26.20;92.70;;;;;;6224044;23;20020;-86
2021/08/16 08:43:21;;;;;;;7.72;3.10;;;26.50;91.70;;;;;;6244992;23;20032;-88
2021/08/16 08:46:11;;;;;;;5.90;3.53;;;27.30;87.30;;;;;;6245948;22;20051;-88
2021/08/16 08:48:59;;;;;;;5.38;3.58;;;27.80;82.50;;;;;;6245260;23;20210;-86
2021/08/16 08:51:49;;;;;;;6.60;3.53;;;28.10;79.60;;;;;;6225367;23;20028;-91
2021/08/16 08:54:37;;;;;;;8.32;3.60;;;28.60;72.80;;;;;;6229434;23;20024;-91
2021/08/16 08:57:45;;;;;;;7.90;3.50;;;29.00;70.20;;;;;;6216808;23;20020;-89
2021/08/16 09:00:36;;;;;;;8.32;3.50;;;28.70;68.70;;;;;;6225690;22;20059;-90
2021/08/16 09:03:27;;;;;;;11.27;4.03;;;28.50;68.30;;;;;;6245009;23;20099;-91
2021/08/16 09:06:28;;;;;;;6.03;3.63;;;27.70;68.40;;;;;;6224646;23;20060;-89
2021/08/16 09:09:18;;;;;;;6.60;4.22;;;26.60;75.90;;;;;;6224226;23;20059;-89
2021/08/16 09:12:08;;;;;;;11.80;4.60;;;25.50;77.50;;;;;;6220515;23;20028;-88
2021/08/16 09:14:57;;;;;;;11.30;5.22;;;24.60;80.90;;;;;;6249743;23;20100;-88
2021/08/16 09:17:47;;;;;;;7.78;4.97;;;23.80;84.10;;;;;;6225550;23;20046;-88
2021/08/16 09:20:36;;;;;;;8.73;5.10;;;23.00;90.30;;;;;;6224202;23;20074;-88
2021/08/16 09:23:24;;;;;;;11.65;5.47;;;22.40;90.90;;;;;;6247816;23;20024;-89
2021/08/16 09:26:11;;;;;;;10.30;4.70;;;22.10;92.60;;;;;;6252363;22;20039;-89
2021/08/16 09:29:11;;;;;;;9.43;5.28;;;21.80;93.60;;;;;;6248491;23;20044;-87
2021/08/16 09:32:04;;;;;;;9.63;4.90;;;21.90;94.60;;;;;;6249273;23;20043;-88
2021/08/16 09:34:52;;;;;;;10.85;5.20;;;21.70;93.50;;;;;;6251153;23;20483;-88
2021/08/16 09:37:52;;;;;;;9.07;4.70;;;21.80;95.70;;;;;;6248298;22;20028;-86
2021/08/16 09:40:40;;;;;;;12.20;5.43;;;21.50;95.00;;;;;;6246261;23;20020;-88
2021/08/16 09:43:30;;;;;;;7.63;4.55;;;21.30;96.40;;;;;;6222932;23;20028;-88
2021/08/16 09:46:19;;;;;;;7.80;4.68;;;21.40;95.10;;;;;;6243572;23;20081;-90
2021/08/16 09:49:08;;;;;;;10.75;4.70;;;21.70;96.20;;;;;;6243927;23;20409;-93
2021/08/16 09:52:06;;;;;;;10.55;4.50;;;22.20;94.00;;;;;;6242879;23;20024;-91
2021/08/16 09:54:57;;;;;;;9.70;4.30;;;22.50;93.10;;;;;;6225167;23;20043;-89
2021/08/16 09:57:45;;;;;;;11.57;4.55;;;22.90;93.50;;;;;;6245935;22;20036;-89
2021/08/16 10:00:33;;;;;;;7.28;4.05;;;23.50;90.70;;;;;;6245245;23;20060;-90
2021/08/16 10:03:58;;;;;;;8.32;4.07;;;23.90;91.40;;;;;;6241777;23;20035;-91
2021/08/16 10:22:31;;;;;;;;;;;;;;;;;;;;;
2021/08/16 10:25:47;;;;;;;11.00;3.78;;;22.90;91.80;;;;;;6252486;23;20016;-94
2021/08/16 11:02:57;;;;;;;8.15;3.70;;;26.30;74.60;;;;;;6007445;23;20142;-92
2021/08/16 11:06:32;;;;;;;6.70;3.75;;;26.40;78.50;;;;;;6122562;23;20058;-94
2021/08/16 11:09:32;;;;;;;8.00;4.20;;;25.90;77.80;;;;;;6222975;23;20078;-92
2021/08/16 11:12:53;;;;;;;7.95;3.78;;;26.10;77.30;;;;;;6230074;23;20025;-92
2021/08/16 11:16:31;;;;;;;;;;;;;;;;;;;;;
2021/08/16 11:23:21;;;;;;;9.65;3.70;;;24.90;75.90;;;;;;6072419;23;20031;-91
2021/08/16 11:26:22;;;;;;;7.53;3.60;;;24.10;83.70;;;;;;6072657;23;20311;-92
2021/08/16 11:29:12;;;;;;;6.13;3.85;;;23.60;84.00;;;;;;6072824;23;20094;-92
2021/08/16 11:32:32;;;;;;;;;;;;;;;;;;;;;
2021/08/16 11:36:26;;;;;;;;;;;;;;;;;;;;;
2021/08/16 12:10:29;;;;;;;6.65;3.70;;;27.70;61.30;;;;;;5107068;27;20424;-91
2021/08/16 12:13:25;;;;;;;7.57;4.07;;;26.20;60.80;;;;;;5100430;28;20127;-92
2021/08/16 12:16:38;;;;;;;6.95;3.95;;;27.20;58.90;;;;;;5082671;28;20041;-92
2021/08/16 12:19:51;;;;;;;6.68;3.50;;;28.10;57.80;;;;;;5093234;28;20110;-93
2021/08/16 12:23:16;;;;;;;;;;;;;;;;;;;;;
2021/08/16 12:26:09;;;;;;;8.98;3.75;;;25.50;58.70;;;;;;5070775;28;20490;-93
2021/08/16 12:29:01;;;;;;;6.20;3.70;;;24.40;61.80;;;;;;5090577;28;20044;-89
2021/08/16 12:31:55;;;;;;;6.22;3.72;;;24.40;63.80;;;;;;5095357;28;20040;-90
2021/08/16 12:34:49;;;;;;;8.77;3.47;;;25.00;64.90;;;;;;5091521;28;20048;-92
2021/08/16 12:37:39;;;;;;;5.57;3.22;;;25.10;64.90;;;;;;5095295;28;20044;-94
2021/08/16 12:40:32;;;;;;;10.20;3.45;;;25.00;64.40;;;;;;5083030;28;20044;-93
2021/08/16 12:43:22;;;;;;;5.25;3.17;;;25.10;68.90;;;;;;5076019;28;20056;-93
2021/08/16 12:46:13;;;;;;;6.68;3.65;;;25.20;64.70;;;;;;5090196;28;20331;-90
2021/08/16 12:49:24;;;;;;;7.18;3.53;;;24.70;62.30;;;;;;5090973;28;20108;-93
2021/08/16 12:53:10;;;;;;;7.20;3.45;;;24.40;64.80;;;;;;5081181;28;20048;-95
2021/08/16 12:55:57;;;;;;;6.60;3.53;;;25.20;65.00;;;;;;5086282;28;20055;-93
2021/08/16 12:59:30;;;;;;;7.80;3.60;;;25.70;61.70;;;;;;5088172;28;20048;-90
2021/08/16 13:01:57;;;;;;;9.43;3.67;;;26.30;60.50;;;;;;5083802;28;20063;-91
2021/08/16 13:04:49;;;;;;;7.32;3.70;;;25.20;60.80;;;;;;5095772;28;20472;-91
2021/08/16 13:07:38;;;;;;;5.75;3.17;;;24.60;64.80;;;;;;5093545;28;20040;-90
2021/08/16 13:10:25;;;;;;;6.82;4.10;;;24.20;65.00;;;;;;5077961;28;20053;-91
2021/08/16 13:13:18;;;;;;;5.45;3.70;;;24.10;66.10;;;;;;5076655;28;20057;-92
2021/08/16 13:16:06;;;;;;;6.68;4.03;;;25.00;63.70;;;;;;5081720;28;20044;-93
2021/08/16 13:18:58;;;;;;;6.57;3.72;;;24.90;63.70;;;;;;5102936;28;20037;-92
2021/08/16 13:24:29;;;;;;;12.02;4.50;;;24.40;66.90;;;;;;5070468;28;20041;-90
2021/08/16 13:27:25;;;;;;;8.63;4.30;;;24.80;62.40;;;;;;5054888;28;20041;-93
2021/08/16 13:30:24;;;;;;;5.47;3.72;;;24.60;62.70;;;;;;5052684;28;20085;-92
2021/08/16 13:33:30;;;;;;;8.70;4.25;;;24.30;63.40;;;;;;5058204;28;20079;-90
2021/08/16 13:36:28;;;;;;;4.88;3.42;;;24.00;64.30;;;;;;5062583;28;20130;-90
2021/08/16 13:39:18;;;;;;;;;;;24.30;64.40;;;;;;5059476;28;20040;-91
2021/08/16 13:42:06;;;;;;;6.82;4.07;;;24.30;64.60;;;;;;5055448;28;20339;-91
2021/08/16 13:44:54;;;;;;;7.50;4.53;;;23.70;64.40;;;;;;5063936;28;20162;-89
2021/08/16 13:47:41;;;;;;;9.38;4.57;;;23.30;67.30;;;;;;5061103;28;20094;-89
2021/08/16 13:50:29;;;;;;;8.35;4.15;;;23.20;69.90;;;;;;5053861;28;20045;-90
2021/08/16 13:53:16;;;;;;;7.70;4.32;;;23.60;69.10;;;;;;5034439;28;20042;-89
2021/08/16 13:56:04;;;;;;;5.78;3.80;;;24.50;64.40;;;;;;5052214;28;20133;-88
2021/08/16 13:58:51;;;;;;;5.88;4.00;;;25.70;61.00;;;;;;5060120;28;20440;-89
2021/08/16 14:01:38;;;;;;;8.18;3.85;;;26.10;57.80;;;;;;5046822;28;20037;-88
2021/08/16 14:04:26;;;;;;;7.90;3.67;;;26.60;57.00;;;;;;5038486;28;20120;-90
2021/08/16 14:07:15;;;;;;;6.95;3.70;;;27.50;54.30;;;;;;5045257;28;20486;-89
2021/08/16 14:10:05;;;;;;;8.18;3.97;;;26.20;56.80;;;;;;5044973;28;20064;-92
2021/08/16 14:12:53;;;;;;;7.55;3.35;;;26.90;56.30;;;;;;5046471;28;20075;-89
2021/08/16 14:15:40;;;;;;;6.55;3.47;;;26.50;54.90;;;;;;5047596;28;20107;-92
2021/08/16 14:18:28;;;;;;;5.40;3.35;;;25.60;56.60;;;;;;5047180;28;20367;-92
2021/08/16 14:21:15;;;;;;;8.40;3.70;;;24.90;58.40;;;;;;5030565;28;20436;-92
2021/08/16 14:24:05;;;;;;;7.30;3.10;;;24.40;57.60;;;;;;5037455;28;20056;-90
2021/08/16 14:26:54;;;;;;;10.70;3.30;;;24.60;58.10;;;;;;5060143;28;20360;-92
2021/08/16 14:29:41;;;;;;;5.80;3.20;;;25.20;55.90;;;;;;5041539;28;20044;-88
2021/08/16 14:32:31;;;;;;;5.03;2.88;;;25.80;53.30;;;;;;5057163;28;20049;-91
2021/08/16 14:35:18;;;;;;;6.20;2.85;;;26.40;52.20;;;;;;5053805;28;20048;-89
2021/08/16 14:38:08;;;;;;;6.60;2.63;;;27.20;51.20;;;;;;5062967;28;20048;-93
2021/08/16 14:40:57;;;;;;;5.70;2.70;;;27.20;49.70;;;;;;5049642;28;20195;-91
2021/08/16 14:43:44;;;;;;;7.32;2.90;;;26.20;50.30;;;;;;5049710;28;20048;-90
2021/08/16 14:46:32;;;;;;;6.60;2.92;;;25.60;52.80;;;;;;5069903;28;20104;-90
2021/08/16 14:49:19;;;;;;;5.30;2.70;;;24.80;53.60;;;;;;5042041;28;20049;-91
2021/08/16 14:52:07;;;;;;;8.43;3.00;;;23.70;56.90;;;;;;5045631;28;20427;-88
2021/08/16 14:54:55;;;;;;;8.02;2.97;;;22.90;60.00;;;;;;5048997;28;20507;-90
2021/08/16 14:57:46;;;;;;;6.40;3.05;;;22.80;63.00;;;;;;5046481;28;20089;-92
2021/08/16 15:00:33;;;;;;;7.57;3.03;;;22.90;61.90;;;;;;5033950;28;20472;-92
2021/08/16 15:03:26;;;;;;;4.78;2.70;;;22.40;61.10;;;;;;5056520;28;20390;-94
2021/08/16 15:06:16;;;;;;;5.43;2.60;;;22.00;62.80;;;;;;5042498;28;20041;-92
2021/08/16 15:09:04;;;;;;;9.25;2.92;;;21.50;65.20;;;;;;5029880;28;20463;-91
2021/08/16 15:11:52;;;;;;;7.28;3.00;;;21.30;66.60;;;;;;5046431;28;20048;-89
2021/08/16 15:14:39;;;;;;;7.82;3.13;;;21.30;68.20;;;;;;5060449;28;20102;-91
2021/08/16 15:17:31;;;;;;;6.65;3.03;;;21.30;68.60;;;;;;5037640;28;20736;-90
2021/08/16 15:20:19;;;;;;;5.20;3.17;;;21.30;69.30;;;;;;5037018;28;20037;-91
2021/08/16 15:23:12;;;;;;;5.90;2.85;;;21.30;69.70;;;;;;5053546;28;20095;-91
2021/08/16 15:26:09;;;;;;;5.50;2.95;;;21.30;68.20;;;;;;5052106;28;20100;-92
2021/08/16 15:29:04;;;;;;;5.35;2.60;;;21.50;67.50;;;;;;5045525;28;20114;-91
2021/08/16 15:31:55;;;;;;;12.48;2.90;;;21.30;66.80;;;;;;5048943;28;20045;-93
2021/08/16 15:34:44;;;;;;;7.53;3.17;;;21.10;67.80;;;;;;5037158;28;20426;-90
2021/08/16 15:37:31;;;;;;;6.95;2.67;;;20.90;70.00;;;;;;5045604;28;20059;-91
2021/08/16 15:40:21;;;;;;;13.15;2.65;;;20.90;72.50;;;;;;5033822;28;20077;-92
2021/08/16 15:43:11;;;;;;;6.35;2.92;;;20.90;72.60;;;;;;5052292;28;20051;-93
2021/08/16 15:46:19;;;;;;;9.95;2.88;;;20.80;73.50;;;;;;5057523;28;20045;-91
2021/08/16 15:49:06;;;;;;;7.07;2.70;;;20.60;73.90;;;;;;5049995;28;20335;-92
2021/08/16 15:51:54;;;;;;;9.70;2.97;;;20.30;74.20;;;;;;5033468;28;20097;-92
2021/08/16 15:54:41;;;;;;;9.70;3.42;;;20.10;74.60;;;;;;5040262;28;20060;-91
2021/08/16 15:57:34;;;;;;;4.97;2.45;;;19.90;75.60;;;;;;5034694;28;20061;-92
2021/08/16 16:00:23;;;;;;;4.85;2.60;;;19.70;75.00;;;;;;5039492;28;20055;-92
2021/08/16 16:03:11;;;;;;;6.18;2.70;;;19.60;75.20;;;;;;5061277;28;21531;-93
2021/08/16 16:05:59;;;;;;;7.80;3.05;;;19.40;75.40;;;;;;5059526;28;20041;-90
2021/08/16 16:08:47;;;;;;;5.97;2.50;;;19.40;76.80;;;;;;5027986;28;20037;-94
2021/08/16 16:11:34;;;;;;;5.13;2.95;;;19.30;77.30;;;;;;5044413;28;20037;-93
2021/08/16 16:14:21;;;;;;;6.80;2.63;;;19.30;77.70;;;;;;5033386;28;20461;-89
2021/08/16 16:17:11;;;;;;;13.75;3.53;;;19.30;78.60;;;;;;5039724;28;20367;-91
2021/08/16 16:19:58;;;;;;;7.88;3.60;;;19.20;78.80;;;;;;5062454;28;20075;-91
2021/08/16 16:22:46;;;;;;;10.18;2.72;;;19.30;79.70;;;;;;5040866;28;20526;-93
2021/08/16 16:25:34;;;;;;;11.77;2.55;;;19.30;79.40;;;;;;5034764;28;20076;-89
2021/08/16 16:28:22;;;;;;;6.90;2.28;;;19.20;81.00;;;;;;5050002;28;20137;-92
2021/08/16 16:31:16;;;;;;;6.45;2.03;;;19.20;80.00;;;;;;5030309;28;20048;-93
2021/08/16 16:34:10;;;;;;;5.10;1.90;;;19.10;80.50;;;;;;5043861;28;20068;-93
2021/08/16 16:37:11;;;;;;;9.65;2.55;;;19.00;81.80;;;;;;5052827;28;20056;-94
2021/08/16 16:39:58;;;;;;;10.50;2.60;;;18.90;82.70;;;;;;5043424;28;20049;-91
2021/08/16 16:42:46;;;;;;;5.43;2.42;;;18.80;83.30;;;;;;5050249;28;20045;-93
2021/08/16 16:45:36;;;;;;;6.88;2.53;;;18.90;84.70;;;;;;5056193;28;20045;-92
2021/08/16 16:48:24;;;;;;;8.38;2.65;;;18.90;86.10;;;;;;5051267;28;20056;-93
2021/08/16 16:51:23;;;;;;;5.72;2.38;;;18.80;86.20;;;;;;5050999;28;20128;-91
2021/08/16 16:54:11;;;;;;;5.75;2.72;;;18.80;88.30;;;;;;5020324;28;20052;-90
2021/08/16 16:56:58;;;;;;;5.50;1.98;;;18.70;88.30;;;;;;5020800;28;20046;-93
2021/08/16 16:59:46;;;;;;;6.88;2.75;;;18.60;89.90;;;;;;5038579;28;20242;-91
2021/08/16 17:02:38;;;;;;;4.00;1.90;;;18.40;90.10;;;;;;5042841;28;20049;-90
2021/08/16 17:05:25;;;;;;;5.03;2.22;;;18.40;90.70;;;;;;5046857;28;20044;-94
2021/08/16 17:08:14;;;;;;;4.25;1.92;;;18.30;90.80;;;;;;5042628;28;20049;-94
2021/08/16 17:11:03;;;;;;;7.65;2.50;;;18.10;90.70;;;;;;5058627;28;20104;-91
2021/08/16 17:13:51;;;;;;;4.53;2.05;;;18.00;90.70;;;;;;5037979;28;20143;-91
2021/08/16 17:16:41;;;;;;;6.20;2.08;;;18.00;90.70;;;;;;5038188;28;20037;-92
2021/08/16 17:19:48;;;;;;;5.53;2.45;;;18.00;90.90;;;;;;5038371;28;20040;-93
2021/08/16 17:22:39;;;;;;;6.18;1.90;;;18.00;91.00;;;;;;5037356;28;20060;-91